createdAt,value
2017-12-22T00:00:07.806Z,5.10
2017-12-22T00:02:35.383Z,6.40
2017-12-22T00:05:02.904Z,6.70
2017-12-22T00:07:31.207Z,6.47
2017-12-22T00:09:58.744Z,6.77
2017-12-22T00:12:27.092Z,6.83
2017-12-22T00:14:54.622Z,8.23
2017-12-22T00:17:22.197Z,7.30
2017-12-22T00:19:49.715Z,6.93
2017-12-22T00:22:18.025Z,7.80
2017-12-22T00:24:45.558Z,8.00
2017-12-22T00:27:13.898Z,8.83
2017-12-22T00:29:41.422Z,7.93
2017-12-22T00:32:08.946Z,10.10
2017-12-22T00:34:37.247Z,7.33
2017-12-22T00:37:04.767Z,8.43
2017-12-22T00:39:32.307Z,8.87
2017-12-22T00:41:59.827Z,9.40
2017-12-22T00:44:27.374Z,11.63
2017-12-22T00:46:55.687Z,10.30
2017-12-22T00:49:23.222Z,11.10
2017-12-22T00:51:50.735Z,9.70
2017-12-22T00:54:18.274Z,9.17
2017-12-22T00:56:45.793Z,8.77
2017-12-22T00:59:14.103Z,10.00
2017-12-22T01:01:41.626Z,11.37
2017-12-22T01:04:09.936Z,9.00
2017-12-22T01:06:37.459Z,8.03
2017-12-22T01:09:05.768Z,9.40
2017-12-22T01:11:33.289Z,10.57
2017-12-22T01:14:01.597Z,10.90
2017-12-22T01:16:34.866Z,10.83
2017-12-22T01:19:08.719Z,11.07
2017-12-22T01:21:36.244Z,11.90
2017-12-22T01:24:04.555Z,10.50
2017-12-22T01:26:32.079Z,12.23
2017-12-22T01:29:00.390Z,11.17
2017-12-22T01:31:27.911Z,11.80
2017-12-22T01:33:56.226Z,12.03
2017-12-22T01:36:23.746Z,11.97
2017-12-22T01:38:52.051Z,11.00
2017-12-22T01:41:19.585Z,12.30
2017-12-22T01:43:47.895Z,12.27
2017-12-22T01:46:15.591Z,12.30
2017-12-22T01:48:43.898Z,12.63
2017-12-22T01:51:11.425Z,11.73
2017-12-22T01:53:38.976Z,11.40
2017-12-22T01:56:06.510Z,11.90
2017-12-22T01:58:34.058Z,11.73
2017-12-22T02:01:02.347Z,10.57
2017-12-22T02:03:29.875Z,11.73
2017-12-22T02:05:58.190Z,11.40
2017-12-22T02:08:25.718Z,10.77
2017-12-22T02:10:54.025Z,10.30
2017-12-22T02:13:21.555Z,10.13
2017-12-22T02:15:49.862Z,8.93
2017-12-22T02:18:17.386Z,8.73
2017-12-22T02:20:44.927Z,10.17
2017-12-22T02:23:12.450Z,8.80
2017-12-22T02:25:39.991Z,9.27
2017-12-22T02:28:08.277Z,9.37
2017-12-22T02:30:35.820Z,9.93
2017-12-22T02:33:04.114Z,10.70
2017-12-22T02:35:31.654Z,9.73
2017-12-22T02:37:59.953Z,10.77
2017-12-22T02:40:27.509Z,10.30
2017-12-22T02:42:55.034Z,9.87
2017-12-22T02:45:22.574Z,11.57
2017-12-22T02:47:50.102Z,10.07
2017-12-22T02:50:17.650Z,10.90
2017-12-22T02:52:45.172Z,9.27
2017-12-22T02:55:12.718Z,11.00
2017-12-22T02:57:40.238Z,8.70
2017-12-22T03:00:07.762Z,11.50
2017-12-22T03:02:35.301Z,9.83
2017-12-22T03:05:02.827Z,8.83
2017-12-22T03:07:30.367Z,10.33
2017-12-22T03:09:57.887Z,9.10
2017-12-22T03:12:25.427Z,10.20
2017-12-22T03:14:52.950Z,10.57
2017-12-22T03:17:20.490Z,8.73
2017-12-22T03:19:48.786Z,11.40
2017-12-22T03:22:16.374Z,11.93
2017-12-22T03:24:43.902Z,11.37
2017-12-22T03:27:11.471Z,12.00
2017-12-22T03:29:39.011Z,11.67
2017-12-22T03:32:07.311Z,11.63
2017-12-22T03:34:34.858Z,13.10
2017-12-22T03:37:03.146Z,13.20
2017-12-22T03:39:30.690Z,15.83
2017-12-22T03:41:58.979Z,13.53
2017-12-22T03:44:26.522Z,13.80
2017-12-22T03:46:54.811Z,15.17
2017-12-22T03:49:23.126Z,15.60
2017-12-22T03:51:50.646Z,16.77
2017-12-22T03:54:18.956Z,16.07
2017-12-22T03:56:46.484Z,16.30
2017-12-22T03:59:14.792Z,15.53
2017-12-22T04:01:42.318Z,16.10
2017-12-22T04:04:10.610Z,15.50
2017-12-22T04:06:38.919Z,14.67
2017-12-22T04:09:06.438Z,14.40
2017-12-22T04:11:34.779Z,15.60
2017-12-22T04:14:02.303Z,16.57
2017-12-22T04:16:29.844Z,15.17
2017-12-22T04:18:58.134Z,14.47
2017-12-22T04:21:25.678Z,16.30
2017-12-22T04:23:53.963Z,15.80
2017-12-22T04:26:22.274Z,13.30
2017-12-22T04:28:49.802Z,14.90
2017-12-22T04:31:18.115Z,14.03
2017-12-22T04:33:45.650Z,12.43
2017-12-22T04:36:13.189Z,12.40
2017-12-22T04:38:41.479Z,13.23
2017-12-22T04:41:09.794Z,13.40
2017-12-22T04:43:37.314Z,11.87
2017-12-22T04:46:05.626Z,11.67
2017-12-22T04:48:33.150Z,11.40
2017-12-22T04:51:01.467Z,12.07
2017-12-22T04:53:28.986Z,11.40
2017-12-22T04:55:57.289Z,11.50
2017-12-22T04:58:24.811Z,10.97
2017-12-22T05:00:52.354Z,10.10
2017-12-22T05:03:19.878Z,9.90
2017-12-22T05:05:47.423Z,10.00
2017-12-22T05:08:14.946Z,9.13
2017-12-22T05:10:42.526Z,10.43
2017-12-22T05:13:10.814Z,10.00
2017-12-22T05:15:39.099Z,12.23
2017-12-22T05:18:06.647Z,12.03
2017-12-22T05:20:34.942Z,15.47
2017-12-22T05:23:02.486Z,12.30
2017-12-22T05:25:30.015Z,12.23
2017-12-22T05:27:57.562Z,13.10
2017-12-22T05:30:25.087Z,13.87
2017-12-22T05:32:52.638Z,12.70
2017-12-22T05:35:20.166Z,14.67
2017-12-22T05:37:47.713Z,14.23
2017-12-22T05:40:15.234Z,13.50
2017-12-22T05:42:42.784Z,13.10
2017-12-22T05:45:10.310Z,15.20
2017-12-22T05:47:37.850Z,14.40
2017-12-22T05:50:05.374Z,16.27
2017-12-22T05:52:32.915Z,15.47
2017-12-22T05:55:01.198Z,17.17
2017-12-22T05:57:28.741Z,17.03
2017-12-22T05:59:57.038Z,15.70
2017-12-22T06:02:24.586Z,16.63
2017-12-22T06:04:52.874Z,16.20
2017-12-22T06:07:20.419Z,14.97
2017-12-22T06:09:48.714Z,15.90
2017-12-22T06:12:16.263Z,16.40
2017-12-22T06:14:44.555Z,16.60
2017-12-22T06:17:12.132Z,16.33
2017-12-22T06:19:39.658Z,14.83
2017-12-22T06:22:07.945Z,17.37
2017-12-22T06:24:35.488Z,15.47
2017-12-22T06:27:03.788Z,14.03
2017-12-22T06:29:31.334Z,14.87
2017-12-22T06:31:59.625Z,13.27
2017-12-22T06:34:27.167Z,16.47
2017-12-22T06:36:55.458Z,18.40
2017-12-22T06:39:23.006Z,16.27
2017-12-22T06:41:51.299Z,13.67
2017-12-22T06:44:18.853Z,18.40
2017-12-22T06:46:47.151Z,18.07
2017-12-22T06:49:14.678Z,18.03
2017-12-22T06:51:42.987Z,18.50
2017-12-22T06:54:10.513Z,20.47
2017-12-22T06:56:38.822Z,18.93
2017-12-22T06:59:06.347Z,17.23
2017-12-22T07:01:33.891Z,17.10
2017-12-22T07:04:01.410Z,18.00
2017-12-22T07:06:28.950Z,18.07
2017-12-22T07:08:57.239Z,17.77
2017-12-22T07:11:24.791Z,17.23
2017-12-22T07:13:52.318Z,18.57
2017-12-22T07:16:19.848Z,17.10
2017-12-22T07:18:47.398Z,17.10
2017-12-22T07:21:14.926Z,16.13
2017-12-22T07:23:42.471Z,19.40
2017-12-22T07:26:10.759Z,15.73
2017-12-22T07:28:39.066Z,16.20
2017-12-22T07:31:06.591Z,16.00
2017-12-22T07:33:34.904Z,15.80
2017-12-22T07:36:02.430Z,18.60
2017-12-22T07:38:30.737Z,16.80
2017-12-22T07:40:58.265Z,17.77
2017-12-22T07:43:26.605Z,18.27
2017-12-22T07:45:54.129Z,17.43
2017-12-22T07:48:21.659Z,18.83
2017-12-22T07:50:49.972Z,18.40
2017-12-22T07:53:17.496Z,23.23
2017-12-22T07:55:45.049Z,23.23
2017-12-22T07:58:13.334Z,23.53
2017-12-22T08:00:41.644Z,32.13
2017-12-22T08:03:09.161Z,26.90
2017-12-22T08:05:36.703Z,24.40
2017-12-22T08:08:04.229Z,27.83
2017-12-22T08:10:31.805Z,28.87
2017-12-22T08:12:59.332Z,29.47
2017-12-22T08:15:26.901Z,29.53
2017-12-22T08:17:55.179Z,24.63
2017-12-22T08:20:22.702Z,20.90
2017-12-22T08:22:50.250Z,20.20
2017-12-22T08:25:17.766Z,19.60
2017-12-22T08:27:45.320Z,19.60
2017-12-22T08:30:12.845Z,18.20
2017-12-22T08:32:41.157Z,18.40
2017-12-22T08:35:08.697Z,16.10
2017-12-22T08:37:37.007Z,16.67
2017-12-22T08:40:04.539Z,16.17
2017-12-22T08:42:32.852Z,15.00
2017-12-22T08:45:00.378Z,16.80
2017-12-22T08:47:27.937Z,15.70
2017-12-22T08:49:55.466Z,15.73
2017-12-22T08:52:22.987Z,14.73
2017-12-22T08:54:50.534Z,13.87
2017-12-22T08:57:18.886Z,12.83
2017-12-22T08:59:47.190Z,12.90
2017-12-22T09:02:14.715Z,14.33
2017-12-22T09:04:43.026Z,16.17
2017-12-22T09:07:10.552Z,12.77
2017-12-22T09:09:38.857Z,14.17
2017-12-22T09:12:06.385Z,14.93
2017-12-22T09:14:34.302Z,13.80
2017-12-22T09:17:01.826Z,13.67
2017-12-22T09:19:30.118Z,16.70
2017-12-22T09:21:57.662Z,13.70
2017-12-22T09:24:25.954Z,14.57
2017-12-22T09:26:53.498Z,15.17
2017-12-22T09:29:21.782Z,14.07
2017-12-22T09:31:50.086Z,13.53
2017-12-22T09:34:17.604Z,11.10
2017-12-22T09:36:45.161Z,11.87
2017-12-22T09:39:13.453Z,9.83
2017-12-22T09:41:41.767Z,10.87
2017-12-22T09:44:09.284Z,10.30
2017-12-22T09:46:37.603Z,8.60
2017-12-22T09:49:05.134Z,10.00
2017-12-22T09:51:33.442Z,8.90
2017-12-22T09:54:00.963Z,9.27
2017-12-22T09:56:29.285Z,13.60
2017-12-22T09:58:56.802Z,8.90
2017-12-22T10:01:25.102Z,6.23
2017-12-22T10:03:52.627Z,7.53
2017-12-22T10:06:20.160Z,7.40
2017-12-22T10:08:47.686Z,8.03
2017-12-22T10:11:15.227Z,8.90
2017-12-22T10:13:43.525Z,8.20
2017-12-22T10:16:11.076Z,10.43
2017-12-22T10:18:38.608Z,9.17
2017-12-22T10:21:06.155Z,9.27
2017-12-22T10:23:33.678Z,9.00
2017-12-22T10:26:01.215Z,9.00
2017-12-22T10:28:28.742Z,8.50
2017-12-22T10:30:56.266Z,8.50
2017-12-22T10:33:23.839Z,9.50
2017-12-22T10:35:51.357Z,8.30
2017-12-22T10:38:18.900Z,8.27
2017-12-22T10:40:47.183Z,9.07
2017-12-22T10:43:15.482Z,8.70
2017-12-22T10:45:43.004Z,12.30
2017-12-22T10:48:10.538Z,11.63
2017-12-22T10:50:38.064Z,13.97
2017-12-22T10:53:05.625Z,13.83
2017-12-22T10:55:33.149Z,13.20
2017-12-22T10:58:00.690Z,12.00
2017-12-22T11:00:28.222Z,9.47
2017-12-22T11:02:55.771Z,9.70
2017-12-22T11:05:23.290Z,10.10
2017-12-22T11:07:50.817Z,9.37
2017-12-22T11:10:19.130Z,9.60
2017-12-22T11:12:47.417Z,15.37
2017-12-22T11:15:15.751Z,19.20
2017-12-22T11:17:43.276Z,10.40
2017-12-22T11:20:10.810Z,9.47
2017-12-22T11:22:39.100Z,9.87
2017-12-22T11:25:07.412Z,11.93
2017-12-22T11:27:34.944Z,10.87
2017-12-22T11:30:02.491Z,12.93
2017-12-22T11:32:30.781Z,12.83
2017-12-22T11:34:59.146Z,14.67
2017-12-22T11:37:27.438Z,8.87
2017-12-22T11:39:55.751Z,9.57
2017-12-22T11:42:23.271Z,6.50
2017-12-22T11:44:51.604Z,6.20
2017-12-22T11:47:19.150Z,5.37
2017-12-22T11:49:46.690Z,6.77
2017-12-22T11:52:14.206Z,4.70
2017-12-22T11:54:41.799Z,4.93
2017-12-22T11:57:09.320Z,5.20
2017-12-22T11:59:36.841Z,5.93
2017-12-22T12:02:04.388Z,6.43
2017-12-22T12:04:31.914Z,3.90
2017-12-22T12:07:00.224Z,4.40
2017-12-22T12:09:27.745Z,5.03
2017-12-22T12:11:55.282Z,4.60
2017-12-22T12:14:23.565Z,5.00
2017-12-22T12:16:51.105Z,5.90
2017-12-22T12:19:18.636Z,6.40
2017-12-22T12:21:46.175Z,4.30
2017-12-22T12:24:14.469Z,4.50
2017-12-22T12:26:42.009Z,5.30
2017-12-22T12:29:10.295Z,6.13
2017-12-22T12:31:38.598Z,6.07
2017-12-22T12:34:06.115Z,5.77
2017-12-22T12:36:33.653Z,4.37
2017-12-22T12:39:01.174Z,6.90
2017-12-22T12:41:28.710Z,5.37
2017-12-22T12:43:56.986Z,4.20
2017-12-22T12:46:25.287Z,7.90
2017-12-22T12:48:52.810Z,2.93
2017-12-22T12:51:20.327Z,2.90
2017-12-22T12:53:47.857Z,2.90
2017-12-22T12:56:15.372Z,3.77
2017-12-22T12:58:42.903Z,4.10
2017-12-22T13:01:10.418Z,3.37
2017-12-22T13:03:38.718Z,3.47
2017-12-22T13:06:06.240Z,7.50
2017-12-22T13:08:33.784Z,7.43
2017-12-22T13:11:01.327Z,6.17
2017-12-22T13:13:28.850Z,7.97
2017-12-22T13:15:57.136Z,11.90
2017-12-22T13:18:24.683Z,10.40
2017-12-22T13:20:52.968Z,9.20
2017-12-22T13:23:20.502Z,7.60
2017-12-22T13:25:48.790Z,6.63
2017-12-22T13:28:17.090Z,7.50
2017-12-22T13:30:45.550Z,6.80
2017-12-22T13:33:13.851Z,5.67
2017-12-22T13:35:41.370Z,12.70
2017-12-22T13:38:08.907Z,11.60
2017-12-22T13:40:36.413Z,5.27
2017-12-22T13:43:04.713Z,5.53
2017-12-22T13:45:32.240Z,5.70
2017-12-22T13:48:00.536Z,4.90
2017-12-22T13:50:28.058Z,5.93
2017-12-22T13:52:55.595Z,6.40
2017-12-22T13:55:23.112Z,5.10
2017-12-22T13:57:50.650Z,4.93
2017-12-22T14:00:18.934Z,4.83
2017-12-22T14:02:47.234Z,5.10
2017-12-22T14:05:14.746Z,6.50
2017-12-22T14:07:42.294Z,6.33
2017-12-22T14:10:09.810Z,5.30
2017-12-22T14:12:37.383Z,9.47
2017-12-22T14:15:04.900Z,12.80
2017-12-22T14:17:32.413Z,5.90
2017-12-22T14:19:59.942Z,6.63
2017-12-22T14:22:27.454Z,6.83
2017-12-22T14:24:54.997Z,7.60
2017-12-22T14:27:22.518Z,9.10
2017-12-22T14:29:50.063Z,9.40
2017-12-22T14:32:17.612Z,8.90
2017-12-22T14:34:45.154Z,8.00
2017-12-22T14:37:12.674Z,9.10
2017-12-22T14:39:40.458Z,8.13
2017-12-22T14:42:07.973Z,7.30
2017-12-22T14:44:36.283Z,7.63
2017-12-22T14:47:03.826Z,7.30
2017-12-22T14:49:31.340Z,7.23
2017-12-22T14:51:58.879Z,6.67
2017-12-22T14:54:26.402Z,7.40
2017-12-22T14:56:53.940Z,7.20
2017-12-22T14:59:23.190Z,7.07
2017-12-22T15:01:51.104Z,5.87
2017-12-22T15:04:19.413Z,7.30
2017-12-22T15:06:47.712Z,7.33
2017-12-22T15:09:15.235Z,6.53
2017-12-22T15:11:43.545Z,8.73
2017-12-22T15:14:11.060Z,6.73
2017-12-22T15:16:38.578Z,8.07
2017-12-22T15:19:06.123Z,12.70
2017-12-22T15:21:33.654Z,13.93
2017-12-22T15:24:01.966Z,11.00
2017-12-22T15:26:29.489Z,8.20
2017-12-22T15:28:57.802Z,7.07
2017-12-22T15:31:25.324Z,4.73
2017-12-22T15:33:53.631Z,6.83
2017-12-22T15:36:21.150Z,6.33
2017-12-22T15:38:48.682Z,5.20
2017-12-22T15:41:16.197Z,4.87
2017-12-22T15:43:43.735Z,4.90
2017-12-22T15:46:12.018Z,4.77
2017-12-22T15:48:40.364Z,6.97
2017-12-22T15:51:07.883Z,5.00
2017-12-22T15:53:35.443Z,4.60
2017-12-22T15:56:02.980Z,5.03
2017-12-22T15:58:31.265Z,4.47
2017-12-22T16:00:59.563Z,4.57
2017-12-22T16:03:27.085Z,4.53
2017-12-22T16:05:54.614Z,5.10
2017-12-22T16:08:22.126Z,4.63
2017-12-22T16:10:49.704Z,4.63
2017-12-22T16:13:17.274Z,4.40
2017-12-22T16:15:44.811Z,3.53
2017-12-22T16:18:16.333Z,3.30
2017-12-22T16:20:43.873Z,2.53
2017-12-22T16:23:11.432Z,3.40
2017-12-22T16:25:39.008Z,3.67
2017-12-22T16:28:06.528Z,4.60
2017-12-22T16:30:34.064Z,5.03
2017-12-22T16:33:01.578Z,2.60
2017-12-22T16:35:29.165Z,1.90
2017-12-22T16:37:57.448Z,2.00
2017-12-22T16:40:25.741Z,2.70
2017-12-22T16:42:53.254Z,1.93
2017-12-22T16:45:20.766Z,2.13
2017-12-22T16:47:48.339Z,3.00
2017-12-22T16:50:15.858Z,2.80
2017-12-22T16:52:44.169Z,2.90
2017-12-22T16:55:11.687Z,3.40
2017-12-22T16:57:39.227Z,6.40
2017-12-22T17:00:06.769Z,2.70
2017-12-22T17:02:34.309Z,2.50
2017-12-22T17:05:01.868Z,3.73
2017-12-22T17:07:29.402Z,2.90
2017-12-22T17:09:57.741Z,4.10
2017-12-22T17:12:25.288Z,2.50
2017-12-22T17:14:52.855Z,3.07
2017-12-22T17:17:20.441Z,3.08
2017-12-22T17:19:47.953Z,3.23
2017-12-22T17:22:15.487Z,4.00
2017-12-22T17:24:43.823Z,8.27
2017-12-22T17:27:11.426Z,17.03
2017-12-22T17:29:39.765Z,25.90
2017-12-22T17:32:07.319Z,25.87
2017-12-22T17:34:34.842Z,23.97
2017-12-22T17:37:03.202Z,25.73
2017-12-22T17:39:31.506Z,23.87
2017-12-22T17:41:59.119Z,24.40
2017-12-22T17:44:26.644Z,24.27
2017-12-22T17:46:54.232Z,21.83
2017-12-22T17:49:21.807Z,23.03
2017-12-22T17:51:49.441Z,22.47
2017-12-22T17:54:16.942Z,24.30
2017-12-22T17:56:44.478Z,25.47
2017-12-22T17:59:12.010Z,26.07
2017-12-22T18:01:39.614Z,21.77
2017-12-22T18:04:07.192Z,24.90
2017-12-22T18:06:35.498Z,19.13
2017-12-22T18:09:03.019Z,20.73
2017-12-22T18:11:30.621Z,17.37
2017-12-22T18:13:58.195Z,16.43
2017-12-22T18:16:25.782Z,14.60
2017-12-22T18:18:53.361Z,15.40
2017-12-22T18:21:20.954Z,13.73
2017-12-22T18:23:48.555Z,12.77
2017-12-22T18:26:16.748Z,12.10
2017-12-22T18:28:44.279Z,13.13
2017-12-22T18:31:11.842Z,13.07
2017-12-22T18:33:39.365Z,13.10
2017-12-22T18:36:06.937Z,12.00
2017-12-22T18:38:34.479Z,12.93
2017-12-22T18:41:02.821Z,14.27
2017-12-22T18:43:30.364Z,14.03
2017-12-22T18:45:57.886Z,14.80
2017-12-22T18:48:26.242Z,15.23
2017-12-22T18:50:53.767Z,15.53
2017-12-22T18:53:21.361Z,14.23
2017-12-22T18:55:48.938Z,13.37
2017-12-22T18:58:17.302Z,13.67
2017-12-22T19:00:44.872Z,14.33
2017-12-22T19:03:24.149Z,19.80
2017-12-22T19:05:51.731Z,15.27
2017-12-22T19:08:19.322Z,12.73
2017-12-22T19:10:46.907Z,11.47
2017-12-22T19:13:15.269Z,11.23
2017-12-22T19:15:42.797Z,10.13
2017-12-22T19:18:10.393Z,11.80
2017-12-22T19:20:37.971Z,10.20
2017-12-22T19:23:06.280Z,10.23
2017-12-22T19:25:33.849Z,9.77
2017-12-22T19:28:01.462Z,10.73
2017-12-22T19:30:29.803Z,9.87
2017-12-22T19:32:57.369Z,9.80
2017-12-22T19:35:24.972Z,12.47
2017-12-22T19:37:52.558Z,12.20
2017-12-22T19:40:20.148Z,9.10
2017-12-22T19:42:47.678Z,8.65
2017-12-22T19:45:15.272Z,10.77
2017-12-22T19:47:42.849Z,11.20
2017-12-22T19:50:10.453Z,10.40
2017-12-22T19:52:38.103Z,10.38
2017-12-22T19:55:05.668Z,14.40
2017-12-22T19:57:33.246Z,13.38
2017-12-22T20:00:00.849Z,12.45
2017-12-22T20:02:28.428Z,14.85
2017-12-22T20:04:56.032Z,13.68
2017-12-22T20:07:23.601Z,14.55
2017-12-22T20:09:51.206Z,13.55
2017-12-22T20:12:18.789Z,12.75
2017-12-22T20:14:47.153Z,11.60
2017-12-22T20:17:15.450Z,10.18
2017-12-22T20:19:43.045Z,10.45
2017-12-22T20:22:10.630Z,11.38
2017-12-22T20:24:38.274Z,14.07
2017-12-22T20:27:05.856Z,12.27
2017-12-22T20:29:33.428Z,12.75
2017-12-22T20:32:01.018Z,10.90
2017-12-22T20:34:29.369Z,11.23
2017-12-22T20:36:56.967Z,8.90
2017-12-22T20:39:24.542Z,8.95
2017-12-22T20:41:52.139Z,9.05
2017-12-22T20:44:19.713Z,9.45
2017-12-22T20:46:47.307Z,9.52
2017-12-22T20:49:14.878Z,8.15
2017-12-22T20:51:42.469Z,8.25
2017-12-22T20:54:10.041Z,9.25
2017-12-22T20:56:37.641Z,7.90
2017-12-22T20:59:05.977Z,7.35
2017-12-22T21:01:33.569Z,7.03
2017-12-22T21:04:01.912Z,7.53
2017-12-22T21:06:29.489Z,7.45
2017-12-22T21:08:57.082Z,8.23
2017-12-22T21:11:25.424Z,9.10
2017-12-22T21:13:53.021Z,7.10
2017-12-22T21:16:21.366Z,12.43
2017-12-22T21:18:48.966Z,9.00
2017-12-22T21:21:17.306Z,8.55
2017-12-22T21:23:44.893Z,9.45
2017-12-22T21:26:13.234Z,11.05
2017-12-22T21:28:40.870Z,10.73
2017-12-22T21:31:08.442Z,9.18
2017-12-22T21:33:36.029Z,11.98
2017-12-22T21:36:03.621Z,9.63
2017-12-22T21:38:31.958Z,8.77
2017-12-22T21:40:59.555Z,10.60
2017-12-22T21:43:27.138Z,11.48
2017-12-22T21:45:55.505Z,11.18
2017-12-22T21:48:23.858Z,12.20
2017-12-22T21:50:51.457Z,11.70
2017-12-22T21:53:19.801Z,15.07
2017-12-22T21:55:47.393Z,13.45
2017-12-22T21:58:15.725Z,13.48
2017-12-22T22:00:43.325Z,11.82
2017-12-22T22:03:11.666Z,9.98
2017-12-22T22:05:39.333Z,8.93
2017-12-22T22:08:06.886Z,12.90
2017-12-22T22:10:34.486Z,11.12
2017-12-22T22:13:02.062Z,12.05
2017-12-22T22:15:30.434Z,12.95
2017-12-22T22:17:58.783Z,10.13
2017-12-22T22:20:26.377Z,15.00
2017-12-22T22:22:54.726Z,14.57
2017-12-22T22:25:22.322Z,17.35
2017-12-22T22:27:50.668Z,20.37
2017-12-22T22:30:18.246Z,15.40
2017-12-22T22:32:46.596Z,14.27
2017-12-22T22:35:14.938Z,14.27
2017-12-22T22:37:42.490Z,11.70
2017-12-22T22:40:10.070Z,16.62
2017-12-22T22:42:37.661Z,14.23
2017-12-22T22:45:05.758Z,14.85
2017-12-22T22:47:34.125Z,13.68
2017-12-22T22:50:01.714Z,11.57
2017-12-22T22:52:30.079Z,11.25
2017-12-22T22:54:58.375Z,13.60
2017-12-22T22:57:26.728Z,14.73
2017-12-22T22:59:54.310Z,11.73
2017-12-22T23:02:22.676Z,13.65
2017-12-22T23:04:50.206Z,14.07
2017-12-22T23:07:17.797Z,13.50
2017-12-22T23:09:45.378Z,13.60
2017-12-22T23:12:13.695Z,12.63
2017-12-22T23:14:41.265Z,11.60
2017-12-22T23:17:08.870Z,11.32
2017-12-22T23:19:37.204Z,12.18
2017-12-22T23:22:04.776Z,11.20
2017-12-22T23:24:32.378Z,10.55
2017-12-22T23:27:00.708Z,9.00
2017-12-22T23:29:28.261Z,11.05
2017-12-22T23:31:55.794Z,9.60
2017-12-22T23:34:23.346Z,8.90
2017-12-22T23:36:50.927Z,8.93
2017-12-22T23:39:18.474Z,11.75
2017-12-22T23:41:46.100Z,12.82
2017-12-22T23:44:13.699Z,13.97
2017-12-22T23:46:41.278Z,14.52
2017-12-22T23:49:08.824Z,11.97
2017-12-22T23:51:36.349Z,10.57
2017-12-22T23:54:04.713Z,10.35
2017-12-22T23:56:32.279Z,13.00
2017-12-22T23:58:59.885Z,14.27
